createdAt,value
2016-06-11T00:00:47.323Z,38.06
2016-06-11T00:01:47.342Z,38.25
2016-06-11T00:02:47.329Z,38.25
2016-06-11T00:03:47.332Z,38.25
2016-06-11T00:04:47.335Z,38.35
2016-06-11T00:05:48.088Z,38.35
2016-06-11T00:06:47.341Z,38.16
2016-06-11T00:07:47.345Z,38.35
2016-06-11T00:08:47.363Z,38.45
2016-06-11T00:09:47.367Z,38.45
2016-06-11T00:10:47.353Z,38.45
2016-06-11T00:11:47.356Z,38.25
2016-06-11T00:12:47.360Z,37.96
2016-06-11T00:13:47.629Z,38.16
2016-06-11T00:14:47.226Z,37.96
2016-06-11T00:15:47.385Z,37.96
2016-06-11T00:16:48.481Z,37.87
2016-06-11T00:17:47.391Z,38.25
2016-06-11T00:18:47.394Z,38.16
2016-06-11T00:19:47.397Z,38.25
2016-06-11T00:20:48.290Z,38.25
2016-06-11T00:21:47.403Z,37.87
2016-06-11T00:22:47.407Z,38.45
2016-06-11T00:23:47.409Z,38.25
2016-06-11T00:24:47.412Z,38.35
2016-06-11T00:25:47.416Z,38.35
2016-06-11T00:26:47.419Z,38.25
2016-06-11T00:27:47.422Z,38.25
2016-06-11T00:28:47.753Z,38.45
2016-06-11T00:29:47.428Z,38.74
2016-06-11T00:30:47.431Z,38.74
2016-06-11T00:31:48.512Z,38.43
2016-06-11T00:32:47.437Z,38.54
2016-06-11T00:33:47.487Z,38.54
2016-06-11T00:34:47.490Z,38.45
2016-06-11T00:35:47.446Z,38.35
2016-06-11T00:36:47.450Z,38.25
2016-06-11T00:37:47.452Z,38.25
2016-06-11T00:38:47.456Z,38.16
2016-06-11T00:39:47.458Z,38.45
2016-06-11T00:40:47.462Z,38.35
2016-06-11T00:41:47.465Z,38.53
2016-06-11T00:42:48.327Z,38.45
2016-06-11T00:43:47.486Z,38.62
2016-06-11T00:44:47.911Z,38.62
2016-06-11T00:45:47.477Z,38.71
2016-06-11T00:46:47.480Z,38.62
2016-06-11T00:47:47.484Z,38.45
2016-06-11T00:48:47.501Z,38.35
2016-06-11T00:49:47.489Z,38.35
2016-06-11T00:50:47.493Z,38.33
2016-06-11T00:51:47.605Z,37.95
2016-06-11T00:52:47.513Z,38.06
2016-06-11T00:53:48.080Z,38.35
2016-06-11T00:54:47.349Z,38.25
2016-06-11T00:55:47.508Z,38.53
2016-06-11T00:56:47.526Z,38.71
2016-06-11T00:57:47.528Z,38.62
2016-06-11T00:58:47.532Z,38.62
2016-06-11T00:59:47.535Z,38.53
2016-06-11T01:00:47.538Z,38.62
2016-06-11T01:01:47.541Z,38.71
2016-06-11T01:02:47.529Z,38.71
2016-06-11T01:03:47.547Z,38.71
2016-06-11T01:04:48.442Z,38.81
2016-06-11T01:05:47.553Z,38.62
2016-06-11T01:06:47.557Z,38.71
2016-06-11T01:07:47.559Z,38.62
2016-06-11T01:08:47.563Z,38.62
2016-06-11T01:09:47.566Z,38.62
2016-06-11T01:10:47.554Z,38.43
2016-06-11T01:11:47.557Z,38.53
2016-06-11T01:12:47.560Z,38.62
2016-06-11T01:13:48.094Z,38.62
2016-06-11T01:14:47.628Z,38.62
2016-06-11T01:15:48.725Z,38.33
2016-06-11T01:16:47.587Z,38.25
2016-06-11T01:17:47.576Z,37.95
2016-06-11T01:18:47.594Z,38.43
2016-06-11T01:19:47.581Z,38.53
2016-06-11T01:20:47.600Z,38.62
2016-06-11T01:21:47.603Z,39.2
2016-06-11T01:22:47.590Z,38.81
2016-06-11T01:23:47.609Z,39.01
2016-06-11T01:24:47.596Z,39.29
2016-06-11T01:25:47.615Z,38.81
2016-06-11T01:26:48.118Z,38.71
2016-06-11T01:27:47.621Z,39.11
2016-06-11T01:28:47.609Z,38.81
2016-06-11T01:29:47.815Z,38.71
2016-06-11T01:30:47.616Z,38.81
2016-06-11T01:31:47.649Z,39.2
2016-06-11T01:32:47.622Z,39.2
2016-06-11T01:33:47.639Z,39.18
2016-06-11T01:34:47.674Z,38.91
2016-06-11T01:35:47.740Z,39.01
2016-06-11T01:36:47.634Z,39.2
2016-06-11T01:37:48.746Z,38.91
2016-06-11T01:38:47.655Z,39.2
2016-06-11T01:39:47.643Z,38.91
2016-06-11T01:40:47.661Z,39.2
2016-06-11T01:41:47.650Z,39.01
2016-06-11T01:42:47.652Z,39.18
2016-06-11T01:43:47.655Z,39.39
2016-06-11T01:44:47.956Z,39.09
2016-06-11T01:45:47.676Z,38.91
2016-06-11T01:46:47.665Z,38.89
2016-06-11T01:47:47.682Z,38.62
2016-06-11T01:48:48.217Z,39.09
2016-06-11T01:49:47.674Z,39.11
2016-06-11T01:50:47.677Z,38.7
2016-06-11T01:51:47.679Z,39.18
2016-06-11T01:52:47.683Z,38.99
2016-06-11T01:53:47.686Z,38.89
2016-06-11T01:54:47.689Z,39.09
2016-06-11T01:55:47.536Z,39.18
2016-06-11T01:56:47.695Z,39.28
2016-06-11T01:57:47.698Z,39.18
2016-06-11T01:58:47.716Z,39.09
2016-06-11T01:59:48.501Z,38.99
2016-06-11T02:00:47.708Z,39.09
2016-06-11T02:01:47.725Z,38.79
2016-06-11T02:02:47.714Z,38.7
2016-06-11T02:03:48.264Z,38.7
2016-06-11T02:04:47.720Z,38.7
2016-06-11T02:05:47.738Z,38.6
2016-06-11T02:06:47.726Z,38.7
2016-06-11T02:07:47.729Z,39.18
2016-06-11T02:08:47.732Z,39.18
2016-06-11T02:09:47.736Z,38.99
2016-06-11T02:10:47.754Z,38.51
2016-06-11T02:11:47.741Z,38.7
2016-06-11T02:12:47.745Z,38.53
2016-06-11T02:13:47.748Z,38.81
2016-06-11T02:14:49.188Z,39.28
2016-06-11T02:15:47.753Z,38.6
2016-06-11T02:16:47.757Z,39.18
2016-06-11T02:17:47.760Z,38.51
2016-06-11T02:18:47.763Z,38.51
2016-06-11T02:19:47.766Z,39.18
2016-06-11T02:20:47.769Z,38.99
2016-06-11T02:21:47.772Z,39.09
2016-06-11T02:22:47.775Z,39.18
2016-06-11T02:23:48.607Z,38.89
2016-06-11T02:24:47.781Z,39.28
2016-06-11T02:25:47.924Z,39.28
2016-06-11T02:26:47.788Z,39.18
2016-06-11T02:27:47.791Z,38.6
2016-06-11T02:28:47.793Z,38.81
2016-06-11T02:29:48.531Z,38.6
2016-06-11T02:30:47.799Z,38.99
2016-06-11T02:31:47.803Z,38.7
2016-06-11T02:32:47.806Z,38.7
2016-06-11T02:33:47.824Z,39.28
2016-06-11T02:34:47.812Z,39.28
2016-06-11T02:35:47.815Z,38.79
2016-06-11T02:36:48.771Z,39.37
2016-06-11T02:37:47.868Z,38.6
2016-06-11T02:38:47.825Z,38.6
2016-06-11T02:39:47.827Z,38.33
2016-06-11T02:40:47.845Z,38.43
2016-06-11T02:41:47.833Z,38.23
2016-06-11T02:42:47.837Z,38.04
2016-06-11T02:43:47.840Z,38.14
2016-06-11T02:44:47.905Z,38.7
2016-06-11T02:45:47.845Z,38.51
2016-06-11T02:46:47.849Z,38.7
2016-06-11T02:47:48.305Z,38.51
2016-06-11T02:48:47.855Z,38.7
2016-06-11T02:49:47.858Z,38.6
2016-06-11T02:50:47.861Z,38.41
2016-06-11T02:51:47.864Z,38.6
2016-06-11T02:52:47.868Z,38.6
2016-06-11T02:53:47.870Z,38.51
2016-06-11T02:54:47.873Z,38.6
2016-06-11T02:55:47.861Z,38.31
2016-06-11T02:56:47.864Z,38.51
2016-06-11T02:57:47.866Z,38.31
2016-06-11T02:58:48.620Z,38.6
2016-06-11T02:59:47.936Z,38.41
2016-06-11T03:00:47.876Z,38.7
2016-06-11T03:01:47.879Z,38.31
2016-06-11T03:02:47.899Z,38.7
2016-06-11T03:03:47.901Z,38.51
2016-06-11T03:04:47.904Z,38.41
2016-06-11T03:05:47.892Z,38.31
2016-06-11T03:06:47.894Z,38.31
2016-06-11T03:07:47.913Z,38.21
2016-06-11T03:08:47.901Z,38.51
2016-06-11T03:09:48.357Z,38.6
2016-06-11T03:10:47.907Z,38.02
2016-06-11T03:11:47.925Z,38.21
2016-06-11T03:12:47.928Z,38.6
2016-06-11T03:13:47.932Z,38.7
2016-06-11T03:14:47.935Z,38.6
2016-06-11T03:15:47.922Z,38.41
2016-06-11T03:16:47.925Z,38.51
2016-06-11T03:17:47.928Z,38.7
2016-06-11T03:18:47.931Z,38.7
2016-06-11T03:19:47.935Z,38.6
2016-06-11T03:20:48.531Z,38.7
2016-06-11T03:21:47.940Z,38.99
2016-06-11T03:22:48.913Z,38.6
2016-06-11T03:23:47.947Z,38.7
2016-06-11T03:24:47.949Z,38.7
2016-06-11T03:25:47.969Z,38.31
2016-06-11T03:26:47.972Z,38.68
2016-06-11T03:27:47.959Z,39.26
2016-06-11T03:28:47.962Z,39.09
2016-06-11T03:29:48.106Z,39.18
2016-06-11T03:30:47.968Z,38.7
2016-06-11T03:31:48.018Z,38.6
2016-06-11T03:32:47.974Z,38.51
2016-06-11T03:33:47.978Z,38.89
2016-06-11T03:34:47.981Z,38.7
2016-06-11T03:35:47.983Z,38.6
2016-06-11T03:36:47.987Z,38.7
2016-06-11T03:37:47.834Z,38.7
2016-06-11T03:38:47.992Z,38.6
2016-06-11T03:39:47.996Z,38.79
2016-06-11T03:40:47.999Z,38.6
2016-06-11T03:41:48.002Z,38.51
2016-06-11T03:42:48.146Z,39.09
2016-06-11T03:43:48.008Z,39.18
2016-06-11T03:44:48.589Z,39.28
2016-06-11T03:45:48.014Z,38.97
2016-06-11T03:46:48.002Z,39.26
2016-06-11T03:47:48.021Z,38.7
2016-06-11T03:48:48.009Z,38.41
2016-06-11T03:49:48.027Z,38.89
2016-06-11T03:50:47.857Z,38.79
2016-06-11T03:51:48.018Z,38.51
2016-06-11T03:52:48.036Z,39.18
2016-06-11T03:53:48.024Z,39.16
2016-06-11T03:54:48.027Z,39.26
2016-06-11T03:55:48.842Z,38.97
2016-06-11T03:56:48.033Z,39.18
2016-06-11T03:57:48.036Z,39.09
2016-06-11T03:58:48.040Z,39.16
2016-06-11T03:59:48.073Z,38.7
2016-06-11T04:00:48.060Z,38.7
2016-06-11T04:01:48.048Z,38.79
2016-06-11T04:02:48.051Z,38.7
2016-06-11T04:03:48.054Z,38.21
2016-06-11T04:04:48.057Z,38.51
2016-06-11T04:05:48.061Z,38.51
2016-06-11T04:06:49.017Z,38.51
2016-06-11T04:07:48.066Z,38.51
2016-06-11T04:08:48.070Z,38.6
2016-06-11T04:09:48.073Z,38.79
2016-06-11T04:10:48.076Z,38.41
2016-06-11T04:11:48.079Z,38.7
2016-06-11T04:12:48.082Z,38.41
2016-06-11T04:13:48.085Z,38.89
2016-06-11T04:14:48.120Z,38.7
2016-06-11T04:15:48.216Z,38.51
2016-06-11T04:16:48.094Z,38.41
2016-06-11T04:17:48.848Z,38.41
2016-06-11T04:18:48.100Z,38.7
2016-06-11T04:19:48.103Z,38.7
2016-06-11T04:20:48.107Z,38.51
2016-06-11T04:21:48.110Z,38.31
2016-06-11T04:22:48.113Z,38.6
2016-06-11T04:23:48.116Z,38.6
2016-06-11T04:24:47.963Z,38.7
2016-06-11T04:25:48.122Z,38.41
2016-06-11T04:26:48.125Z,38.7
2016-06-11T04:27:48.128Z,38.41
2016-06-11T04:28:48.616Z,38.6
2016-06-11T04:29:48.165Z,38.21
2016-06-11T04:30:47.981Z,38.6
2016-06-11T04:31:48.141Z,38.6
2016-06-11T04:32:49.253Z,38.99
2016-06-11T04:33:48.131Z,39.16
2016-06-11T04:34:48.150Z,39.06
2016-06-11T04:35:48.153Z,39.18
2016-06-11T04:36:48.156Z,38.6
2016-06-11T04:37:48.143Z,39.37
2016-06-11T04:38:48.162Z,39.28
2016-06-11T04:39:48.149Z,39.06
2016-06-11T04:40:48.168Z,39.26
2016-06-11T04:41:48.375Z,38.6
2016-06-11T04:42:48.158Z,38.7
2016-06-11T04:43:48.755Z,38.7
2016-06-11T04:44:48.196Z,38.89
2016-06-11T04:45:48.183Z,38.89
2016-06-11T04:46:48.170Z,39.36
2016-06-11T04:47:48.174Z,38.99
2016-06-11T04:48:48.177Z,38.68
2016-06-11T04:49:48.180Z,39.09
2016-06-11T04:50:48.183Z,38.97
2016-06-11T04:51:48.186Z,38.6
2016-06-11T04:52:48.189Z,38.6
2016-06-11T04:53:48.193Z,38.6
2016-06-11T04:54:49.195Z,39.28
2016-06-11T04:55:48.198Z,38.7
2016-06-11T04:56:48.201Z,38.79
2016-06-11T04:57:48.204Z,38.89
2016-06-11T04:58:48.208Z,38.99
2016-06-11T04:59:48.742Z,39.09
2016-06-11T05:00:48.072Z,39.18
2016-06-11T05:01:48.217Z,38.68
2016-06-11T05:02:48.220Z,38.7
2016-06-11T05:03:48.270Z,39.09
2016-06-11T05:04:48.226Z,38.7
2016-06-11T05:05:48.698Z,38.6
2016-06-11T05:06:48.232Z,39.09
2016-06-11T05:07:48.236Z,39.28
2016-06-11T05:08:48.238Z,38.87
2016-06-11T05:09:48.242Z,38.99
2016-06-11T05:10:48.244Z,39.09
2016-06-11T05:11:48.248Z,39.09
2016-06-11T05:12:48.251Z,39.09
2016-06-11T05:13:48.253Z,39.64
2016-06-11T05:14:48.241Z,39.16
2016-06-11T05:15:48.244Z,39.16
2016-06-11T05:16:49.263Z,39.16
2016-06-11T05:17:48.266Z,38.87
2016-06-11T05:18:48.269Z,39.18
2016-06-11T05:19:48.273Z,38.89
2016-06-11T05:20:48.276Z,38.97
2016-06-11T05:21:48.278Z,39.16
2016-06-11T05:22:48.265Z,39.16
2016-06-11T05:23:48.269Z,39.94
2016-06-11T05:24:48.287Z,40.12
2016-06-11T05:25:48.291Z,39.74
2016-06-11T05:26:48.278Z,40.03
2016-06-11T05:27:49.374Z,39.74
2016-06-11T05:28:48.284Z,39.64
2016-06-11T05:29:49.287Z,39.16
2016-06-11T05:30:48.134Z,39.64
2016-06-11T05:31:48.293Z,39.64
2016-06-11T05:32:48.296Z,39.74
2016-06-11T05:33:48.299Z,39.45
2016-06-11T05:34:48.302Z,39.74
2016-06-11T05:35:48.306Z,38.97
2016-06-11T05:36:48.308Z,38.87
2016-06-11T05:37:48.311Z,39.28
2016-06-11T05:38:48.956Z,39.36
2016-06-11T05:39:48.317Z,39.16
2016-06-11T05:40:48.320Z,39.45
2016-06-11T05:41:48.340Z,39.64
2016-06-11T05:42:48.327Z,39.94
2016-06-11T05:43:48.330Z,39.74
2016-06-11T05:44:48.333Z,40.22
2016-06-11T05:45:48.900Z,40.03
2016-06-11T05:46:48.339Z,40.03
2016-06-11T05:47:48.342Z,39.64
2016-06-11T05:48:48.345Z,39.84
2016-06-11T05:49:49.427Z,39.74
2016-06-11T05:50:48.351Z,39.45
2016-06-11T05:51:48.354Z,39.64
2016-06-11T05:52:48.358Z,40.22
2016-06-11T05:53:48.346Z,40.22
2016-06-11T05:54:48.364Z,40.12
2016-06-11T05:55:48.351Z,39.74
2016-06-11T05:56:48.389Z,40.42
2016-06-11T05:57:48.465Z,40.32
2016-06-11T05:58:48.477Z,40.03
2016-06-11T05:59:48.535Z,40.99
2016-06-11T06:00:49.205Z,40.22
2016-06-11T06:01:48.586Z,39.84
2016-06-11T06:02:48.604Z,40.12
2016-06-11T06:03:48.621Z,39.64
2016-06-11T06:04:48.654Z,39.64
2016-06-11T06:05:48.657Z,40.03
2016-06-11T06:06:48.667Z,40.03
2016-06-11T06:07:48.675Z,40.03
2016-06-11T06:08:48.684Z,39.94
2016-06-11T06:09:48.692Z,39.84
2016-06-11T06:10:48.716Z,39.94
2016-06-11T06:11:49.799Z,40.22
2016-06-11T06:12:48.711Z,40.32
2016-06-11T06:13:48.716Z,40.61
2016-06-11T06:14:48.721Z,40.22
2016-06-11T06:15:49.632Z,40.32
2016-06-11T06:16:48.730Z,40.61
2016-06-11T06:17:48.734Z,40.32
2016-06-11T06:18:48.752Z,40.99
2016-06-11T06:19:48.741Z,40.8
2016-06-11T06:20:48.745Z,40.9
2016-06-11T06:21:48.749Z,40.9
2016-06-11T06:22:48.752Z,39.94
2016-06-11T06:23:48.755Z,40.82
2016-06-11T06:24:48.757Z,41.09
2016-06-11T06:25:48.761Z,40.61
2016-06-11T06:26:49.857Z,40.9
2016-06-11T06:27:48.751Z,40.8
2016-06-11T06:28:48.770Z,40.42
2016-06-11T06:29:48.757Z,40.9
2016-06-11T06:30:49.182Z,41.38
2016-06-11T06:31:48.779Z,41.28
2016-06-11T06:32:48.767Z,41.38
2016-06-11T06:33:48.769Z,40.51
2016-06-11T06:34:48.819Z,40.51
2016-06-11T06:35:49.917Z,40.44
2016-06-11T06:36:48.795Z,40.9
2016-06-11T06:37:49.140Z,40.42
2016-06-11T06:38:48.785Z,40.99
2016-06-11T06:39:48.788Z,41.09
2016-06-11T06:40:48.791Z,40.9
2016-06-11T06:41:48.794Z,41.57
2016-06-11T06:42:48.798Z,41.19
2016-06-11T06:43:48.800Z,41.28
2016-06-11T06:44:48.803Z,41.09
2016-06-11T06:45:49.290Z,41.09
2016-06-11T06:46:48.810Z,40.9
2016-06-11T06:47:48.813Z,41.28
2016-06-11T06:48:49.784Z,40.99
2016-06-11T06:49:48.818Z,41.09
2016-06-11T06:50:48.822Z,41.48
2016-06-11T06:51:48.825Z,41.19
2016-06-11T06:52:48.827Z,41.38
2016-06-11T06:53:48.831Z,41.09
2016-06-11T06:54:48.834Z,40.7
2016-06-11T06:55:48.837Z,40.8
2016-06-11T06:56:48.840Z,41.09
2016-06-11T06:57:48.844Z,41.38
2016-06-11T06:58:48.846Z,40.99
2016-06-11T06:59:49.443Z,41.09
2016-06-11T07:00:48.853Z,40.51
2016-06-11T07:01:48.855Z,40.99
2016-06-11T07:02:48.859Z,41.28
2016-06-11T07:03:48.689Z,41.09
2016-06-11T07:04:48.865Z,41.38
2016-06-11T07:05:48.868Z,41.38
2016-06-11T07:06:48.855Z,41.57
2016-06-11T07:07:48.874Z,41.38
2016-06-11T07:08:48.877Z,41.38
2016-06-11T07:09:48.880Z,41.38
2016-06-11T07:10:49.680Z,41.77
2016-06-11T07:11:48.886Z,41.96
2016-06-11T07:12:48.873Z,41.09
2016-06-11T07:13:48.876Z,41.38
2016-06-11T07:14:48.880Z,41.86
2016-06-11T07:15:48.898Z,41.77
2016-06-11T07:16:48.885Z,41.38
2016-06-11T07:17:48.889Z,41.19
2016-06-11T07:18:48.892Z,41.69
2016-06-11T07:19:48.894Z,41.6
2016-06-11T07:20:48.898Z,41.4
2016-06-11T07:21:49.355Z,41.3
2016-06-11T07:22:48.904Z,41.88
2016-06-11T07:23:48.907Z,41.2
2016-06-11T07:24:48.910Z,41.4
2016-06-11T07:25:48.913Z,41.2
2016-06-11T07:26:48.916Z,41.4
2016-06-11T07:27:48.919Z,41.3
2016-06-11T07:28:48.923Z,41.3
2016-06-11T07:29:48.926Z,41.6
2016-06-11T07:30:48.928Z,41.88
2016-06-11T07:31:48.932Z,42.27
2016-06-11T07:32:49.934Z,42.18
2016-06-11T07:33:48.938Z,42.27
2016-06-11T07:34:48.941Z,42.75
2016-06-11T07:35:48.944Z,42.36
2016-06-11T07:36:48.947Z,41.69
2016-06-11T07:37:48.950Z,41.3
2016-06-11T07:38:48.797Z,41.98
2016-06-11T07:39:48.957Z,42.66
2016-06-11T07:40:49.053Z,42.08
2016-06-11T07:41:48.962Z,42.46
2016-06-11T07:42:48.966Z,41.5
2016-06-11T07:43:49.673Z,41.5
2016-06-11T07:44:48.971Z,41.3
2016-06-11T07:45:49.694Z,40.92
2016-06-11T07:46:48.978Z,41.88
2016-06-11T07:47:48.981Z,41.69
2016-06-11T07:48:48.984Z,42.46
2016-06-11T07:49:48.987Z,42.18
2016-06-11T07:50:49.006Z,42.27
2016-06-11T07:51:48.993Z,41.11
2016-06-11T07:52:48.996Z,41.88
2016-06-11T07:53:49.000Z,42.36
2016-06-11T07:54:49.910Z,42.27
2016-06-11T07:55:49.005Z,41.78
2016-06-11T07:56:49.008Z,42.46
2016-06-11T07:57:49.012Z,42.46
2016-06-11T07:58:49.609Z,42.27
2016-06-11T07:59:49.018Z,42.27
2016-06-11T08:00:48.865Z,42.56
2016-06-11T08:01:49.024Z,42.18
2016-06-11T08:02:49.027Z,42.36
2016-06-11T08:03:49.030Z,41.5
2016-06-11T08:04:49.033Z,41.78
2016-06-11T08:05:49.037Z,42.46
2016-06-11T08:06:49.039Z,42.18
2016-06-11T08:07:49.043Z,42.08
2016-06-11T08:08:49.061Z,42.08
2016-06-11T08:09:50.048Z,42.75
2016-06-11T08:10:49.067Z,42.66
2016-06-11T08:11:49.055Z,42.66
2016-06-11T08:12:49.058Z,42.08
2016-06-11T08:13:49.076Z,41.02
2016-06-11T08:14:49.064Z,41.71
2016-06-11T08:15:49.317Z,41.78
2016-06-11T08:16:49.070Z,41.61
2016-06-11T08:17:49.073Z,42.56
2016-06-11T08:18:50.046Z,41.52
2016-06-11T08:19:49.079Z,42.66
2016-06-11T08:20:49.442Z,42.85
2016-06-11T08:21:49.085Z,43.43
2016-06-11T08:22:49.089Z,43.81
2016-06-11T08:23:49.108Z,43.79
2016-06-11T08:24:49.111Z,43.79
2016-06-11T08:25:49.114Z,44.08
2016-06-11T08:26:49.117Z,44.1
2016-06-11T08:27:49.120Z,43.98
2016-06-11T08:28:49.123Z,44.18
2016-06-11T08:29:49.126Z,44.59
2016-06-11T08:30:49.723Z,43.89
2016-06-11T08:31:51.023Z,44.68
2016-06-11T08:32:49.135Z,44.76
2016-06-11T08:33:49.138Z,45.53
2016-06-11T08:34:49.141Z,45.92
2016-06-11T08:35:49.145Z,45.34
2016-06-11T08:36:49.148Z,46.11
2016-06-11T08:37:49.166Z,45.99
2016-06-11T08:38:49.153Z,45.34
2016-06-11T08:39:49.173Z,45.72
2016-06-11T08:40:49.223Z,45.14
2016-06-11T08:41:49.226Z,45.53
2016-06-11T08:42:50.291Z,45.24
2016-06-11T08:43:49.185Z,45.34
2016-06-11T08:44:49.188Z,45.53
2016-06-11T08:45:49.800Z,45.24
2016-06-11T08:46:49.444Z,44.87
2016-06-11T08:47:49.197Z,45.26
2016-06-11T08:48:49.200Z,44.95
2016-06-11T08:49:49.203Z,45.84
2016-06-11T08:50:49.206Z,45.34
2016-06-11T08:51:49.257Z,45.04
2016-06-11T08:52:49.213Z,44.78
2016-06-11T08:53:49.700Z,44.97
2016-06-11T08:54:49.234Z,45.24
2016-06-11T08:55:49.237Z,45.92
2016-06-11T08:56:49.240Z,44.95
2016-06-11T08:57:49.243Z,45.26
2016-06-11T08:58:49.246Z,44.97
2016-06-11T08:59:49.250Z,45.17
2016-06-11T09:00:49.518Z,45.45
2016-06-11T09:01:49.256Z,45.26
2016-06-11T09:02:49.258Z,45.45
2016-06-11T09:03:49.261Z,44.68
2016-06-11T09:04:49.967Z,45.26
2016-06-11T09:05:49.284Z,45.07
2016-06-11T09:06:49.287Z,44.78
2016-06-11T09:07:49.273Z,45.07
2016-06-11T09:08:49.293Z,44.87
2016-06-11T09:09:49.296Z,44.97
2016-06-11T09:10:49.299Z,45.07
2016-06-11T09:11:49.302Z,44.78
2016-06-11T09:12:49.305Z,44.78
2016-06-11T09:13:49.309Z,45.55
2016-06-11T09:14:49.327Z,45.65
2016-06-11T09:15:50.080Z,45.26
2016-06-11T09:16:49.161Z,44.78
2016-06-11T09:17:49.336Z,44.59
2016-06-11T09:18:49.340Z,44.51
2016-06-11T09:19:49.343Z,44.29
2016-06-11T09:20:49.346Z,44.12
2016-06-11T09:21:49.348Z,44.42
2016-06-11T09:22:49.367Z,44.51
2016-06-11T09:23:49.355Z,44.7
2016-06-11T09:24:49.358Z,44.03
2016-06-11T09:25:49.361Z,44.32
2016-06-11T09:26:49.911Z,45
2016-06-11T09:27:49.382Z,44.8
2016-06-11T09:28:49.386Z,44.12
2016-06-11T09:29:49.388Z,44.12
2016-06-11T09:30:50.002Z,44.7
2016-06-11T09:31:49.411Z,44.7
2016-06-11T09:32:49.414Z,44.51
2016-06-11T09:33:49.417Z,44.32
2016-06-11T09:34:49.420Z,44.51
2016-06-11T09:35:49.423Z,44.87
2016-06-11T09:36:49.426Z,44.87
2016-06-11T09:37:49.757Z,44.68
2016-06-11T09:38:49.447Z,44.49
2016-06-11T09:39:49.435Z,44.2
2016-06-11T09:40:49.501Z,44.32
2016-06-11T09:41:49.550Z,44.12
2016-06-11T09:42:49.538Z,44.32
2016-06-11T09:43:49.463Z,44.6
2016-06-11T09:44:49.466Z,44.68
2016-06-11T09:45:50.094Z,44.32
2016-06-11T09:46:50.816Z,43.84
2016-06-11T09:47:49.507Z,44.22
2016-06-11T09:48:49.493Z,44.32
2016-06-11T09:49:49.497Z,44.9
2016-06-11T09:50:49.500Z,44.51
2016-06-11T09:51:49.503Z,44.7
2016-06-11T09:52:49.506Z,44.42
2016-06-11T09:53:50.181Z,43.84
2016-06-11T09:54:49.512Z,44.03
2016-06-11T09:55:49.531Z,44.03
2016-06-11T09:56:49.534Z,43.93
2016-06-11T09:57:49.538Z,43.93
2016-06-11T09:58:49.541Z,43.84
2016-06-11T09:59:49.543Z,43.45
2016-06-11T10:00:49.452Z,44.24
2016-06-11T10:01:50.268Z,43.76
2016-06-11T10:02:49.584Z,44.05
2016-06-11T10:03:49.571Z,43.95
2016-06-11T10:04:49.621Z,43.54
2016-06-11T10:05:49.578Z,43.28
2016-06-11T10:06:49.580Z,43.95
2016-06-11T10:07:49.583Z,43.57
2016-06-11T10:08:49.586Z,43.28
2016-06-11T10:09:49.684Z,43.18
2016-06-11T10:10:49.593Z,43.08
2016-06-11T10:11:49.830Z,44.15
2016-06-11T10:12:49.614Z,43.28
2016-06-11T10:13:49.617Z,43.47
2016-06-11T10:14:49.715Z,44.15
2016-06-11T10:15:49.624Z,43.47
2016-06-11T10:16:49.658Z,43.37
2016-06-11T10:17:49.489Z,43.28
2016-06-11T10:18:50.508Z,43.57
2016-06-11T10:19:49.637Z,43.37
2016-06-11T10:20:49.639Z,42.99
2016-06-11T10:21:49.658Z,42.7
2016-06-11T10:22:49.661Z,42.31
2016-06-11T10:23:49.664Z,42.82
2016-06-11T10:24:49.667Z,42.7
2016-06-11T10:25:49.826Z,42.52
2016-06-11T10:26:49.689Z,42.43
2016-06-11T10:27:50.113Z,42.6
2016-06-11T10:28:49.711Z,42.12
2016-06-11T10:29:49.728Z,42.91
2016-06-11T10:30:49.686Z,43.18
2016-06-11T10:31:49.939Z,43.28
2016-06-11T10:32:49.707Z,42.99
2016-06-11T10:33:49.711Z,42.79
2016-06-11T10:34:49.885Z,42.33
2016-06-11T10:35:49.716Z,42.33
2016-06-11T10:36:50.642Z,42.52
2016-06-11T10:37:49.785Z,41.94
2016-06-11T10:38:49.725Z,41.85
2016-06-11T10:39:49.839Z,41.75
2016-06-11T10:40:49.747Z,41.58
2016-06-11T10:41:50.501Z,41.08
2016-06-11T10:42:49.753Z,41.27
2016-06-11T10:43:50.757Z,40.88
2016-06-11T10:44:49.760Z,41.17
2016-06-11T10:45:49.763Z,41.08
2016-06-11T10:46:50.625Z,40.98
2016-06-11T10:47:49.878Z,41.39
2016-06-11T10:48:49.867Z,40.88
2016-06-11T10:49:49.869Z,41.19
2016-06-11T10:50:50.732Z,41.29
2016-06-11T10:51:49.812Z,41.09
2016-06-11T10:52:49.832Z,40.71
2016-06-11T10:53:49.849Z,41.58
2016-06-11T10:54:49.838Z,40.32
2016-06-11T10:55:49.981Z,41.39
2016-06-11T10:56:49.922Z,41.39
2016-06-11T10:57:50.581Z,41.66
2016-06-11T10:58:49.834Z,41.66
2016-06-11T10:59:49.884Z,41.36
2016-06-11T11:00:49.934Z,41.46
2016-06-11T11:01:50.031Z,41.27
2016-06-11T11:02:49.878Z,40.71
2016-06-11T11:03:49.865Z,41.09
2016-06-11T11:04:50.180Z,41.39
2016-06-11T11:05:49.872Z,41.67
2016-06-11T11:06:49.921Z,41.09
2016-06-11T11:07:50.065Z,41.67
2016-06-11T11:08:49.928Z,41.56
2016-06-11T11:09:50.227Z,41.27
2016-06-11T11:10:50.011Z,41.29
2016-06-11T11:11:49.968Z,41.09
2016-06-11T11:12:49.908Z,41.27
2016-06-11T11:13:49.927Z,41.08
2016-06-11T11:14:49.930Z,41.27
2016-06-11T11:15:50.074Z,41.58
2016-06-11T11:16:51.249Z,41.56
2016-06-11T11:17:49.939Z,40.81
2016-06-11T11:18:49.943Z,41.29
2016-06-11T11:19:49.993Z,41.29
2016-06-11T11:20:50.011Z,41.36
2016-06-11T11:21:49.999Z,41.46
2016-06-11T11:22:49.971Z,41.29
2016-06-11T11:23:50.083Z,42.24
2016-06-11T11:24:50.023Z,41.85
2016-06-11T11:25:50.011Z,41.94
2016-06-11T11:26:49.983Z,41.94
2016-06-11T11:27:50.032Z,41.66
2016-06-11T11:28:50.035Z,41.94
2016-06-11T11:29:50.071Z,41.36
2016-06-11T11:30:50.152Z,41.48
2016-06-11T11:31:49.920Z,41.85
2016-06-11T11:32:50.173Z,41.66
2016-06-11T11:33:50.083Z,41.67
2016-06-11T11:34:50.053Z,41.09
2016-06-11T11:35:50.026Z,41.67
2016-06-11T11:36:50.029Z,41.48
2016-06-11T11:37:50.109Z,41.56
2016-06-11T11:38:50.082Z,41.66
2016-06-11T11:39:50.055Z,41.36
2016-06-11T11:40:50.104Z,41.46
2016-06-11T11:41:50.122Z,41.09
2016-06-11T11:42:50.111Z,41.29
2016-06-11T11:43:50.081Z,41.77
2016-06-11T11:44:50.147Z,41.09
2016-06-11T11:45:50.213Z,41.97
2016-06-11T11:46:49.950Z,41.67
2016-06-11T11:47:50.516Z,41.29
2016-06-11T11:48:50.097Z,41
2016-06-11T11:49:50.615Z,41.48
2016-06-11T11:50:50.197Z,41.67
2016-06-11T11:51:50.138Z,41.58
2016-06-11T11:52:50.172Z,41.19
2016-06-11T11:53:50.222Z,41
2016-06-11T11:54:50.162Z,41.29
2016-06-11T11:55:50.181Z,41.19
2016-06-11T11:56:50.465Z,41.19
2016-06-11T11:57:50.203Z,41.09
2016-06-11T11:58:50.206Z,41.39
2016-06-11T11:59:50.178Z,41.09
2016-06-11T12:00:50.259Z,41.29
2016-06-11T12:01:50.216Z,41.09
2016-06-11T12:02:50.625Z,41
2016-06-11T12:03:50.737Z,40.61
2016-06-11T12:04:50.255Z,41.02
2016-06-11T12:05:50.243Z,40.73
2016-06-11T12:06:50.324Z,41.29
2016-06-11T12:07:50.234Z,41.29
2016-06-11T12:08:50.268Z,41.29
2016-06-11T12:09:50.303Z,40.71
2016-06-11T12:10:50.274Z,40.15
2016-06-11T12:11:50.292Z,41.02
2016-06-11T12:12:50.265Z,40.34
2016-06-11T12:13:50.253Z,40.25
2016-06-11T12:14:50.301Z,40.32
2016-06-11T12:15:51.415Z,41
2016-06-11T12:16:51.262Z,41
2016-06-11T12:17:50.218Z,41.29
2016-06-11T12:18:50.330Z,40.71
2016-06-11T12:19:50.271Z,40.81
2016-06-11T12:20:50.336Z,41.29
2016-06-11T12:21:50.339Z,41
2016-06-11T12:22:50.358Z,41.39
2016-06-11T12:23:50.314Z,41.48
2016-06-11T12:24:50.349Z,41.09
2016-06-11T12:25:50.398Z,41
2016-06-11T12:26:50.355Z,41.31
2016-06-11T12:27:50.374Z,41.09
2016-06-11T12:28:50.360Z,40.42
2016-06-11T12:29:50.380Z,41
2016-06-11T12:30:50.367Z,41.77
2016-06-11T12:31:50.245Z,41.19
2016-06-11T12:32:50.357Z,41
2016-06-11T12:33:50.376Z,40.9
2016-06-11T12:34:51.583Z,41.29
2016-06-11T12:35:50.446Z,41.19
2016-06-11T12:36:50.369Z,40.53
2016-06-11T12:37:50.388Z,41.39
2016-06-11T12:38:50.438Z,41.09
2016-06-11T12:39:50.676Z,41.19
2016-06-11T12:40:50.445Z,41.19
2016-06-11T12:41:50.464Z,41.39
2016-06-11T12:42:50.467Z,41.19
2016-06-11T12:43:50.407Z,40.52
2016-06-11T12:44:51.644Z,41.09
2016-06-11T12:45:50.444Z,40.52
2016-06-11T12:46:50.729Z,40.71
2016-06-11T12:47:50.716Z,41.31
2016-06-11T12:48:50.641Z,40.81
2016-06-11T12:49:50.535Z,41
2016-06-11T12:50:50.475Z,40.71
2016-06-11T12:51:50.432Z,40.71
2016-06-11T12:52:50.513Z,40.61
2016-06-11T12:53:50.454Z,40.03
2016-06-11T12:54:50.972Z,40.15
2016-06-11T12:55:50.522Z,40.61
2016-06-11T12:56:50.510Z,40.61
2016-06-11T12:57:50.544Z,40.25